createdAt,value
2023-05-23T00:00:36.447Z,89.28
2023-05-23T00:01:36.452Z,89.42
2023-05-23T00:02:36.535Z,89.07
2023-05-23T00:03:36.529Z,88.97
2023-05-23T00:04:36.439Z,88.67
2023-05-23T00:05:36.401Z,88.67
2023-05-23T00:06:36.395Z,88.97
2023-05-23T00:07:36.386Z,89.07
2023-05-23T00:08:36.358Z,89.28
2023-05-23T00:09:36.407Z,89.52
2023-05-23T00:10:36.370Z,89.32
2023-05-23T00:11:36.351Z,89.52
2023-05-23T00:12:36.346Z,89.52
2023-05-23T00:13:36.357Z,89.62
2023-05-23T00:14:36.329Z,89.52
2023-05-23T00:15:36.469Z,89.92
2023-05-23T00:16:36.324Z,89.92
2023-05-23T00:17:36.388Z,90.12
2023-05-23T00:18:36.422Z,89.83
2023-05-23T00:19:36.461Z,90.12
2023-05-23T00:20:36.270Z,90.23
2023-05-23T00:21:36.257Z,89.83
2023-05-23T00:22:36.223Z,89.72
2023-05-23T00:23:36.243Z,89.83
2023-05-23T00:24:36.248Z,89.92
2023-05-23T00:25:36.199Z,89.83
2023-05-23T00:26:36.167Z,89.83
2023-05-23T00:27:36.191Z,89.92
2023-05-23T00:28:36.190Z,89.92
2023-05-23T00:29:36.152Z,90.03
2023-05-23T00:30:36.152Z,89.92
2023-05-23T00:31:36.279Z,89.92
2023-05-23T00:32:36.167Z,89.92
2023-05-23T00:33:36.166Z,89.72
2023-05-23T00:34:36.101Z,89.92
2023-05-23T00:35:36.104Z,89.92
2023-05-23T00:36:36.102Z,90.07
2023-05-23T00:37:36.099Z,89.97
2023-05-23T00:38:36.095Z,89.92
2023-05-23T00:39:36.078Z,89.92
2023-05-23T00:40:36.079Z,89.92
2023-05-23T00:41:36.130Z,89.92
2023-05-23T00:42:36.021Z,89.87
2023-05-23T00:43:36.026Z,89.97
2023-05-23T00:44:36.022Z,90.07
2023-05-23T00:45:36.015Z,89.76
2023-05-23T00:46:36.029Z,90.17
2023-05-23T00:47:36.105Z,90.17
2023-05-23T00:48:35.991Z,90.07
2023-05-23T00:49:35.980Z,90.27
2023-05-23T00:50:35.967Z,90.17
2023-05-23T00:51:35.931Z,90.37
2023-05-23T00:52:35.994Z,90.58
2023-05-23T00:53:35.942Z,90.88
2023-05-23T00:54:35.921Z,90.47
2023-05-23T00:55:35.932Z,90.17
2023-05-23T00:56:35.892Z,90.31
2023-05-23T00:57:35.863Z,90.37
2023-05-23T00:58:35.892Z,90.27
2023-05-23T00:59:35.875Z,90.31
2023-05-23T01:00:35.947Z,90.21
2023-05-23T01:01:35.864Z,90.11
2023-05-23T01:02:35.905Z,90.62
2023-05-23T01:03:36.020Z,90.62
2023-05-23T01:04:35.814Z,90.52
2023-05-23T01:05:35.860Z,90.62
2023-05-23T01:06:35.792Z,90.31
2023-05-23T01:07:35.787Z,90.21
2023-05-23T01:08:35.798Z,90.21
2023-05-23T01:09:35.768Z,89.91
2023-05-23T01:10:35.785Z,90.21
2023-05-23T01:11:35.751Z,89.87
2023-05-23T01:12:35.726Z,90.01
2023-05-23T01:13:35.712Z,89.87
2023-05-23T01:14:35.740Z,89.76
2023-05-23T01:15:35.752Z,89.87
2023-05-23T01:16:35.753Z,90.07
2023-05-23T01:17:35.762Z,89.66
2023-05-23T01:18:35.684Z,89.46
2023-05-23T01:19:35.735Z,89.70
2023-05-23T01:20:35.650Z,89.50
2023-05-23T01:21:35.669Z,89.56
2023-05-23T01:22:35.673Z,89.46
2023-05-23T01:23:35.684Z,89.16
2023-05-23T01:24:35.617Z,89.46
2023-05-23T01:25:35.617Z,89.46
2023-05-23T01:26:35.583Z,89.61
2023-05-23T01:27:35.595Z,89.00
2023-05-23T01:28:35.624Z,89.40
2023-05-23T01:29:35.575Z,89.81
2023-05-23T01:30:35.573Z,89.81
2023-05-23T01:31:35.575Z,89.70
2023-05-23T01:32:35.570Z,89.91
2023-05-23T01:33:35.545Z,90.01
2023-05-23T01:34:35.531Z,89.91
2023-05-23T01:35:35.634Z,90.21
2023-05-23T01:36:35.504Z,90.52
2023-05-23T01:37:35.502Z,90.62
2023-05-23T01:38:35.517Z,90.41
2023-05-23T01:39:35.500Z,90.67
2023-05-23T01:40:35.463Z,90.82
2023-05-23T01:41:35.459Z,90.82
2023-05-23T01:42:35.458Z,90.58
2023-05-23T01:43:35.482Z,90.62
2023-05-23T01:44:35.444Z,90.82
2023-05-23T01:45:35.444Z,90.72
2023-05-23T01:46:35.434Z,91.02
2023-05-23T01:47:35.464Z,91.22
2023-05-23T01:48:35.409Z,91.32
2023-05-23T01:49:35.400Z,91.22
2023-05-23T01:50:35.380Z,91.32
2023-05-23T01:51:35.454Z,91.22
2023-05-23T01:52:35.347Z,90.92
2023-05-23T01:53:35.363Z,91.32
2023-05-23T01:54:35.440Z,91.22
2023-05-23T01:55:35.344Z,91.32
2023-05-23T01:56:35.304Z,91.22
2023-05-23T01:57:35.294Z,91.42
2023-05-23T01:58:35.323Z,91.12
2023-05-23T01:59:35.331Z,91.42
2023-05-23T02:00:35.264Z,91.32
2023-05-23T02:01:35.346Z,91.42
2023-05-23T02:02:35.295Z,91.42
2023-05-23T02:03:35.284Z,91.63
2023-05-23T02:04:35.254Z,91.93
2023-05-23T02:05:35.201Z,92.03
2023-05-23T02:06:35.200Z,91.93
2023-05-23T02:07:35.335Z,92.13
2023-05-23T02:08:35.202Z,92.54
2023-05-23T02:09:35.216Z,92.44
2023-05-23T02:10:35.178Z,92.09
2023-05-23T02:11:35.155Z,92.09
2023-05-23T02:12:35.146Z,91.73
2023-05-23T02:13:35.160Z,91.18
2023-05-23T02:14:35.172Z,90.78
2023-05-23T02:15:35.119Z,91.28
2023-05-23T02:16:35.201Z,91.28
2023-05-23T02:17:35.128Z,91.12
2023-05-23T02:18:35.138Z,91.18
2023-05-23T02:19:35.127Z,91.08
2023-05-23T02:20:35.072Z,91.28
2023-05-23T02:21:35.746Z,91.18
2023-05-23T02:22:36.058Z,90.88
2023-05-23T02:23:35.142Z,90.47
2023-05-23T02:24:35.038Z,91.02
2023-05-23T02:25:35.036Z,91.28
2023-05-23T02:26:35.013Z,91.08
2023-05-23T02:27:35.045Z,90.98
2023-05-23T02:28:35.012Z,90.88
2023-05-23T02:29:34.976Z,91.18
2023-05-23T02:30:34.994Z,91.38
2023-05-23T02:31:35.008Z,91.28
2023-05-23T02:32:35.025Z,91.63
2023-05-23T02:33:34.962Z,91.28
2023-05-23T02:34:34.933Z,91.32
2023-05-23T02:35:34.949Z,90.78
2023-05-23T02:36:34.917Z,90.88
2023-05-23T02:37:34.908Z,91.28
2023-05-23T02:38:34.971Z,91.18
2023-05-23T02:39:34.974Z,91.18
2023-05-23T02:40:34.907Z,91.58
2023-05-23T02:41:34.877Z,91.38
2023-05-23T02:42:34.902Z,91.14
2023-05-23T02:43:34.859Z,91.69
2023-05-23T02:44:34.950Z,91.44
2023-05-23T02:45:34.819Z,91.28
2023-05-23T02:46:34.848Z,91.38
2023-05-23T02:47:34.876Z,91.54
2023-05-23T02:48:34.808Z,91.14
2023-05-23T02:49:34.817Z,91.69
2023-05-23T02:50:34.778Z,91.49
2023-05-23T02:51:34.757Z,91.14
2023-05-23T02:52:34.748Z,91.18
2023-05-23T02:53:34.785Z,90.98
2023-05-23T02:54:34.739Z,90.83
2023-05-23T02:55:34.817Z,90.98
2023-05-23T02:56:34.744Z,90.98
2023-05-23T02:57:34.736Z,90.47
2023-05-23T02:58:34.747Z,90.78
2023-05-23T02:59:34.714Z,90.67
2023-05-23T03:00:34.698Z,90.58
2023-05-23T03:01:34.696Z,90.37
2023-05-23T03:02:34.721Z,90.58
2023-05-23T03:03:34.690Z,90.78
2023-05-23T03:04:34.689Z,90.88
2023-05-23T03:05:34.626Z,90.37
2023-05-23T03:06:34.627Z,89.97
2023-05-23T03:07:34.616Z,89.26
2023-05-23T03:08:34.603Z,88.45
2023-05-23T03:09:34.570Z,88.65
2023-05-23T03:10:34.564Z,88.96
2023-05-23T03:11:34.637Z,88.79
2023-05-23T03:12:35.559Z,89.26
2023-05-23T03:13:34.556Z,88.49
2023-05-23T03:14:34.521Z,88.75
2023-05-23T03:15:34.508Z,88.90
2023-05-23T03:16:34.601Z,87.95
2023-05-23T03:17:34.574Z,88.39
2023-05-23T03:18:34.467Z,87.44
2023-05-23T03:19:36.501Z,88.04
2023-05-23T03:20:35.454Z,86.73
2023-05-23T03:21:34.453Z,86.63
2023-05-23T03:22:34.485Z,86.63
2023-05-23T03:23:34.471Z,86.87
2023-05-23T03:24:34.438Z,86.73
2023-05-23T03:25:34.431Z,86.67
2023-05-23T03:26:34.424Z,86.67
2023-05-23T03:27:34.484Z,86.77
2023-05-23T03:28:34.389Z,86.67
2023-05-23T03:29:34.400Z,86.16
2023-05-23T03:30:34.361Z,86.67
2023-05-23T03:31:35.374Z,86.51
2023-05-23T03:32:34.431Z,86.21
2023-05-23T03:33:34.357Z,86.71
2023-05-23T03:34:34.350Z,86.31
2023-05-23T03:35:34.322Z,86.85
2023-05-23T03:36:34.303Z,86.55
2023-05-23T03:37:34.322Z,87.46
2023-05-23T03:38:34.294Z,87.26
2023-05-23T03:39:34.306Z,86.96
2023-05-23T03:40:34.266Z,88.07
2023-05-23T03:41:34.282Z,87.77
2023-05-23T03:42:34.265Z,87.77
2023-05-23T03:43:34.338Z,88.07
2023-05-23T03:44:34.223Z,87.46
2023-05-23T03:45:34.355Z,87.26
2023-05-23T03:46:34.269Z,87.56
2023-05-23T03:47:34.232Z,87.16
2023-05-23T03:48:34.224Z,88.17
2023-05-23T03:49:34.171Z,87.36
2023-05-23T03:50:34.180Z,87.05
2023-05-23T03:51:34.155Z,87.26
2023-05-23T03:52:34.172Z,87.22
2023-05-23T03:53:35.241Z,86.21
2023-05-23T03:54:34.124Z,86.21
2023-05-23T03:55:34.119Z,86.21
2023-05-23T03:56:34.170Z,86.71
2023-05-23T03:57:34.087Z,86.82
2023-05-23T03:58:34.127Z,87.32
2023-05-23T03:59:34.189Z,87.42
2023-05-23T04:00:34.098Z,86.87
2023-05-23T04:01:34.062Z,86.98
2023-05-23T04:02:34.209Z,87.28
2023-05-23T04:03:34.109Z,86.73
2023-05-23T04:04:34.171Z,86.13
2023-05-23T04:05:34.043Z,86.22
2023-05-23T04:06:34.027Z,86.73
2023-05-23T04:07:33.995Z,86.93
2023-05-23T04:08:34.052Z,86.63
2023-05-23T04:09:33.978Z,87.24
2023-05-23T04:10:33.982Z,86.90
2023-05-23T04:11:33.957Z,86.63
2023-05-23T04:12:33.998Z,86.53
2023-05-23T04:13:33.918Z,86.29
2023-05-23T04:14:33.938Z,85.48
2023-05-23T04:15:34.377Z,85.28
2023-05-23T04:16:33.986Z,85.99
2023-05-23T04:17:34.029Z,85.78
2023-05-23T04:18:33.896Z,85.68
2023-05-23T04:19:33.965Z,85.88
2023-05-23T04:20:33.915Z,85.84
2023-05-23T04:21:33.911Z,85.54
2023-05-23T04:22:33.882Z,84.63
2023-05-23T04:23:33.853Z,83.72
2023-05-23T04:24:33.858Z,83.82
2023-05-23T04:25:33.822Z,83.18
2023-05-23T04:26:33.881Z,83.58
2023-05-23T04:27:33.847Z,82.57
2023-05-23T04:28:33.886Z,82.37
2023-05-23T04:29:33.992Z,82.03
2023-05-23T04:30:33.791Z,82.03
2023-05-23T04:31:33.980Z,82.27
2023-05-23T04:32:33.849Z,82.13
2023-05-23T04:33:33.766Z,81.62
2023-05-23T04:34:33.773Z,81.52
2023-05-23T04:35:33.768Z,81.73
2023-05-23T04:36:33.746Z,81.32
2023-05-23T04:37:33.751Z,80.82
2023-05-23T04:38:33.740Z,81.12
2023-05-23T04:39:33.752Z,81.02
2023-05-23T04:40:33.753Z,80.82
2023-05-23T04:41:33.752Z,81.36
2023-05-23T04:42:33.677Z,81.32
2023-05-23T04:43:33.668Z,81.76
2023-05-23T04:44:33.730Z,81.93
2023-05-23T04:45:33.701Z,81.82
2023-05-23T04:46:33.693Z,81.62
2023-05-23T04:47:36.346Z,81.62
2023-05-23T04:48:33.628Z,81.93
2023-05-23T04:49:33.614Z,81.67
2023-05-23T04:50:33.620Z,82.43
2023-05-23T04:51:33.614Z,81.96
2023-05-23T04:52:33.595Z,82.17
2023-05-23T04:53:33.566Z,82.87
2023-05-23T04:54:33.590Z,82.78
2023-05-23T04:55:33.581Z,82.87
2023-05-23T04:56:33.551Z,83.48
2023-05-23T04:57:33.537Z,82.87
2023-05-23T04:58:33.546Z,82.81
2023-05-23T04:59:33.533Z,82.95
2023-05-23T05:01:05.454Z,83.76
2023-05-23T05:01:33.576Z,83.46
2023-05-23T05:02:33.478Z,83.76
2023-05-23T05:03:33.601Z,84.57
2023-05-23T05:04:33.457Z,84.97
2023-05-23T05:05:33.431Z,83.56
2023-05-23T05:06:33.448Z,83.56
2023-05-23T05:07:33.462Z,84.37
2023-05-23T05:08:33.437Z,84.77
2023-05-23T05:09:33.445Z,84.67
2023-05-23T05:10:33.399Z,82.95
2023-05-23T05:11:33.379Z,83.96
2023-05-23T05:12:33.362Z,84.06
2023-05-23T05:13:33.350Z,83.46
2023-05-23T05:14:33.345Z,83.05
2023-05-23T05:15:33.327Z,82.75
2023-05-23T05:16:33.357Z,83.05
2023-05-23T05:17:33.373Z,83.05
2023-05-23T05:18:33.303Z,82.85
2023-05-23T05:19:33.402Z,83.26
2023-05-23T05:20:33.312Z,82.81
2023-05-23T05:21:33.269Z,82.85
2023-05-23T05:22:33.286Z,81.54
2023-05-23T05:23:33.302Z,82.75
2023-05-23T05:24:33.324Z,82.99
2023-05-23T05:25:33.233Z,83.70
2023-05-23T05:26:33.256Z,83.94
2023-05-23T05:27:33.209Z,84.20
2023-05-23T05:28:33.214Z,84.11
2023-05-23T05:29:33.201Z,84.11
2023-05-23T05:30:33.199Z,83.09
2023-05-23T05:31:33.300Z,82.89
2023-05-23T05:32:33.281Z,82.99
2023-05-23T05:33:33.177Z,81.17
2023-05-23T05:34:33.151Z,81.88
2023-05-23T05:35:33.263Z,82.89
2023-05-23T05:36:33.140Z,82.99
2023-05-23T05:37:33.144Z,82.99
2023-05-23T05:38:33.100Z,83.13
2023-05-23T05:39:33.172Z,81.92
2023-05-23T05:40:33.108Z,81.92
2023-05-23T05:41:33.072Z,82.12
2023-05-23T05:42:33.092Z,81.71
2023-05-23T05:43:33.075Z,82.22
2023-05-23T05:44:33.117Z,82.83
2023-05-23T05:45:33.048Z,83.13
2023-05-23T05:46:33.075Z,83.33
2023-05-23T05:47:33.137Z,82.93
2023-05-23T05:48:34.026Z,81.71
2023-05-23T05:49:33.028Z,82.62
2023-05-23T05:50:33.040Z,81.62
2023-05-23T05:51:33.058Z,81.85
2023-05-23T05:52:32.996Z,81.51
2023-05-23T05:53:32.974Z,81.21
2023-05-23T05:54:32.969Z,81.31
2023-05-23T05:55:32.988Z,81.01
2023-05-23T05:56:32.954Z,81.41
2023-05-23T05:57:32.925Z,82.12
2023-05-23T05:58:32.950Z,81.98
2023-05-23T05:59:32.915Z,80.97
2023-05-23T06:00:32.917Z,80.57
2023-05-23T06:01:32.914Z,80.46
2023-05-23T06:02:32.987Z,79.29
2023-05-23T06:03:32.998Z,80.06
2023-05-23T06:04:32.962Z,79.96
2023-05-23T06:05:32.851Z,80.46
2023-05-23T06:06:32.879Z,80.16
2023-05-23T06:07:32.911Z,80.53
2023-05-23T06:08:32.829Z,81.34
2023-05-23T06:09:32.834Z,80.02
2023-05-23T06:10:32.805Z,79.11
2023-05-23T06:11:32.793Z,78.88
2023-05-23T06:12:32.800Z,77.38
2023-05-23T06:13:32.818Z,74.15
2023-05-23T06:14:32.761Z,68.42
2023-05-23T06:15:32.764Z,66.39
2023-05-23T06:16:32.788Z,64.06
2023-05-23T06:17:32.765Z,65.39
2023-05-23T06:18:32.741Z,64.34
2023-05-23T06:19:32.751Z,65.18
2023-05-23T06:20:32.725Z,65.62
2023-05-23T06:21:32.696Z,64.92
2023-05-23T06:22:32.698Z,66.38
2023-05-23T06:23:32.764Z,66.58
2023-05-23T06:24:32.728Z,66.55
2023-05-23T06:25:32.664Z,67.75
2023-05-23T06:26:32.675Z,69.29
2023-05-23T06:27:32.640Z,69.22
2023-05-23T06:28:32.627Z,69.65
2023-05-23T06:29:32.638Z,70.09
2023-05-23T06:30:32.598Z,71.20
2023-05-23T06:31:32.612Z,70.26
2023-05-23T06:32:32.648Z,70.26
2023-05-23T06:33:32.573Z,70.39
2023-05-23T06:34:32.584Z,70.19
2023-05-23T06:35:32.546Z,71.40
2023-05-23T06:36:32.556Z,70.83
2023-05-23T06:37:32.549Z,71.77
2023-05-23T06:38:32.536Z,71.67
2023-05-23T06:39:32.619Z,72.91
2023-05-23T06:40:32.505Z,72.61
2023-05-23T06:41:32.553Z,73.65
2023-05-23T06:42:32.514Z,73.85
2023-05-23T06:43:32.495Z,74.59
2023-05-23T06:44:32.472Z,75.10
2023-05-23T06:45:32.490Z,74.39
2023-05-23T06:46:32.463Z,74.22
2023-05-23T06:47:32.489Z,74.99
2023-05-23T06:48:32.434Z,75.10
2023-05-23T06:49:32.411Z,75.23
2023-05-23T06:50:32.399Z,75.98
2023-05-23T06:51:32.444Z,75.87
2023-05-23T06:52:32.430Z,75.57
2023-05-23T06:53:32.375Z,77.12
2023-05-23T06:54:32.372Z,76.62
2023-05-23T06:55:33.451Z,77.12
2023-05-23T06:56:32.352Z,77.32
2023-05-23T06:57:32.362Z,77.02
2023-05-23T06:58:32.355Z,77.39
2023-05-23T06:59:32.328Z,77.28
2023-05-23T07:00:32.305Z,77.25
2023-05-23T07:01:32.332Z,76.84
2023-05-23T07:02:32.363Z,76.54
2023-05-23T07:03:32.300Z,77.11
2023-05-23T07:04:32.265Z,75.50
2023-05-23T07:05:32.293Z,75.54
2023-05-23T07:06:32.252Z,75.10
2023-05-23T07:07:32.245Z,75.20
2023-05-23T07:08:32.258Z,75.13
2023-05-23T07:09:32.235Z,75.84
2023-05-23T07:10:32.203Z,76.40
2023-05-23T07:11:32.338Z,75.30
2023-05-23T07:12:34.023Z,75.40
2023-05-23T07:13:33.198Z,75.80
2023-05-23T07:14:32.189Z,75.20
2023-05-23T07:15:32.179Z,75.43
2023-05-23T07:16:32.202Z,75.54
2023-05-23T07:17:32.153Z,75.47
2023-05-23T07:18:32.116Z,75.57
2023-05-23T07:19:33.153Z,76.38
2023-05-23T07:20:32.117Z,76.58
2023-05-23T07:21:32.132Z,76.82
2023-05-23T07:22:32.102Z,77.28
2023-05-23T07:23:32.072Z,78.19
2023-05-23T07:24:32.067Z,77.66
2023-05-23T07:25:32.073Z,77.55
2023-05-23T07:26:32.129Z,76.24
2023-05-23T07:27:32.131Z,75.84
2023-05-23T07:28:32.029Z,76.54
2023-05-23T07:29:32.029Z,76.44
2023-05-23T07:30:33.385Z,75.63
2023-05-23T07:31:32.022Z,76.64
2023-05-23T07:32:32.022Z,76.54
2023-05-23T07:33:31.986Z,77.08
2023-05-23T07:34:31.965Z,77.39
2023-05-23T07:35:31.986Z,76.58
2023-05-23T07:36:31.961Z,75.54
2023-05-23T07:37:31.964Z,75.43
2023-05-23T07:38:31.946Z,76.10
2023-05-23T07:39:31.956Z,75.46
2023-05-23T07:40:31.944Z,75.50
2023-05-23T07:41:31.923Z,76.47
2023-05-23T07:42:31.893Z,75.67
2023-05-23T07:43:31.886Z,75.43
2023-05-23T07:44:31.866Z,75.83
2023-05-23T07:45:31.885Z,74.73
2023-05-23T07:46:31.919Z,74.86
2023-05-23T07:47:31.870Z,75.13
2023-05-23T07:48:31.831Z,73.95
2023-05-23T07:49:31.857Z,75.53
2023-05-23T07:50:31.827Z,75.73
2023-05-23T07:51:31.821Z,75.73
2023-05-23T07:52:31.798Z,75.16
2023-05-23T07:53:31.805Z,75.46
2023-05-23T07:54:31.788Z,75.46
2023-05-23T07:55:31.770Z,75.63
2023-05-23T07:56:31.779Z,74.42
2023-05-23T07:57:31.751Z,75.02
2023-05-23T07:58:31.759Z,75.26
2023-05-23T07:59:31.768Z,75.16
2023-05-23T08:00:31.724Z,75.26
2023-05-23T08:01:31.759Z,75.46
2023-05-23T08:02:31.839Z,75.46
2023-05-23T08:03:31.685Z,76.67
2023-05-23T08:04:31.729Z,76.34
2023-05-23T08:05:31.682Z,75.83
2023-05-23T08:06:31.677Z,75.63
2023-05-23T08:07:31.651Z,75.67
2023-05-23T08:08:31.649Z,75.67
2023-05-23T08:09:31.639Z,75.50
2023-05-23T08:10:31.620Z,75.80
2023-05-23T08:11:31.630Z,75.76
2023-05-23T08:12:31.613Z,75.56
2023-05-23T08:13:31.600Z,75.70
2023-05-23T08:14:42.750Z,75.94
2023-05-23T08:15:33.585Z,76.00
2023-05-23T08:16:31.612Z,76.61
2023-05-23T08:17:31.675Z,77.55
2023-05-23T08:18:31.592Z,77.55
2023-05-23T08:19:31.576Z,77.55
2023-05-23T08:20:31.553Z,78.66
2023-05-23T08:21:31.533Z,78.96
2023-05-23T08:22:31.508Z,78.86
2023-05-23T08:23:31.529Z,77.59
2023-05-23T08:24:31.485Z,78.70
2023-05-23T08:25:31.518Z,78.56
2023-05-23T08:26:31.477Z,78.30
2023-05-23T08:27:31.468Z,78.70
2023-05-23T08:28:31.464Z,77.89
2023-05-23T08:29:31.479Z,78.66
2023-05-23T08:30:31.496Z,78.59
2023-05-23T08:31:31.482Z,78.09
2023-05-23T08:32:31.454Z,78.30
2023-05-23T08:33:31.417Z,78.63
2023-05-23T08:34:31.400Z,79.61
2023-05-23T08:35:31.482Z,78.84
2023-05-23T08:36:31.368Z,79.50
2023-05-23T08:37:31.407Z,79.64
2023-05-23T08:38:31.360Z,78.94
2023-05-23T08:39:32.372Z,80.05
2023-05-23T08:40:31.350Z,80.45
2023-05-23T08:41:31.344Z,79.74
2023-05-23T08:42:31.403Z,80.05
2023-05-23T08:43:31.328Z,81.50
2023-05-23T08:44:31.323Z,81.30
2023-05-23T08:45:32.303Z,82.51
2023-05-23T08:46:31.395Z,80.99
2023-05-23T08:47:31.290Z,81.70
2023-05-23T08:48:31.287Z,81.76
2023-05-23T08:49:31.250Z,81.76
2023-05-23T08:50:31.269Z,81.16
2023-05-23T08:51:31.243Z,80.76
2023-05-23T08:52:31.266Z,81.76
2023-05-23T08:53:31.229Z,81.70
2023-05-23T08:54:31.215Z,81.05
2023-05-23T08:55:31.199Z,81.80
2023-05-23T08:56:31.201Z,81.20
2023-05-23T08:57:31.272Z,80.99
2023-05-23T08:58:31.201Z,81.40
2023-05-23T08:59:31.154Z,82.31
2023-05-23T09:00:31.184Z,81.90
2023-05-23T09:01:31.218Z,81.30
2023-05-23T09:02:31.186Z,81.50
2023-05-23T09:03:31.172Z,81.40
2023-05-23T09:04:31.129Z,81.30
2023-05-23T09:05:31.178Z,80.85
2023-05-23T09:06:31.105Z,80.45
2023-05-23T09:07:31.144Z,79.85
2023-05-23T09:08:31.081Z,79.64
2023-05-23T09:09:31.064Z,79.74
2023-05-23T09:10:31.049Z,80.01
2023-05-23T09:11:31.078Z,79.30
2023-05-23T09:12:31.047Z,79.50
2023-05-23T09:13:31.030Z,79.41
2023-05-23T09:14:31.055Z,79.24
2023-05-23T09:15:31.006Z,78.74
2023-05-23T09:16:31.039Z,79.04
2023-05-23T09:17:31.000Z,79.24
2023-05-23T09:18:31.019Z,78.84
2023-05-23T09:19:31.038Z,80.05
2023-05-23T09:20:30.967Z,79.94
2023-05-23T09:21:30.961Z,79.34
2023-05-23T09:22:30.956Z,79.64
2023-05-23T09:23:30.926Z,79.14
2023-05-23T09:24:30.980Z,79.04
2023-05-23T09:25:30.918Z,79.14
2023-05-23T09:26:30.896Z,78.74
2023-05-23T09:27:30.906Z,79.17
2023-05-23T09:28:30.876Z,79.74
2023-05-23T09:29:30.888Z,79.44
2023-05-23T09:30:30.860Z,78.88
2023-05-23T09:31:30.891Z,79.48
2023-05-23T09:32:30.879Z,79.99
2023-05-23T09:33:30.842Z,79.17
2023-05-23T09:34:30.844Z,78.77
2023-05-23T09:35:30.904Z,78.97
2023-05-23T09:36:30.806Z,78.77
2023-05-23T09:37:30.789Z,78.57
2023-05-23T09:38:30.800Z,78.88
2023-05-23T09:39:30.786Z,78.57
2023-05-23T09:40:30.821Z,79.48
2023-05-23T09:41:30.750Z,79.08
2023-05-23T09:42:30.765Z,79.41
2023-05-23T09:43:30.725Z,79.17
2023-05-23T09:44:30.724Z,78.77
2023-05-23T09:45:30.728Z,78.77
2023-05-23T09:46:30.793Z,78.61
2023-05-23T09:47:30.737Z,78.71
2023-05-23T09:48:30.714Z,78.81
2023-05-23T09:49:30.684Z,79.21
2023-05-23T09:50:30.679Z,79.32
2023-05-23T09:51:30.671Z,79.82
2023-05-23T09:52:31.661Z,79.62
2023-05-23T09:53:30.653Z,79.82
2023-05-23T09:54:30.649Z,80.32
2023-05-23T09:55:30.640Z,80.32
2023-05-23T09:56:30.620Z,80.53
2023-05-23T09:57:30.612Z,79.92
2023-05-23T09:58:30.583Z,79.62
2023-05-23T09:59:30.610Z,79.82
2023-05-23T10:00:30.569Z,78.88
2023-05-23T10:01:30.598Z,78.71
2023-05-23T10:02:30.653Z,78.37
2023-05-23T10:03:30.541Z,79.17
2023-05-23T10:04:30.543Z,78.77
2023-05-23T10:05:30.634Z,78.27
2023-05-23T10:06:30.503Z,77.76
2023-05-23T10:07:30.500Z,77.76
2023-05-23T10:08:30.513Z,77.22
2023-05-23T10:09:30.508Z,77.46
2023-05-23T10:10:30.476Z,77.62
2023-05-23T10:11:31.490Z,78.23
2023-05-23T10:12:30.444Z,77.53
2023-05-23T10:13:30.467Z,77.06
2023-05-23T10:14:30.467Z,78.33
2023-05-23T10:15:30.422Z,77.02
2023-05-23T10:16:30.427Z,77.42
2023-05-23T10:17:30.436Z,77.53
2023-05-23T10:18:30.417Z,78.33
2023-05-23T10:19:30.494Z,78.17
2023-05-23T10:20:30.361Z,77.73
2023-05-23T10:21:30.358Z,78.63
2023-05-23T10:22:30.367Z,77.32
2023-05-23T10:23:30.367Z,77.59
2023-05-23T10:24:30.410Z,76.82
2023-05-23T10:25:30.319Z,76.92
2023-05-23T10:26:30.331Z,77.66
2023-05-23T10:27:30.303Z,78.10
2023-05-23T10:28:30.297Z,78.41
2023-05-23T10:29:30.308Z,79.11
2023-05-23T10:30:30.370Z,79.21
2023-05-23T10:31:30.326Z,79.41
2023-05-23T10:32:30.279Z,79.11
2023-05-23T10:33:31.671Z,79.72
2023-05-23T10:34:30.249Z,80.02
2023-05-23T10:35:30.393Z,80.16
2023-05-23T10:36:31.204Z,80.36
2023-05-23T10:37:30.226Z,80.97
2023-05-23T10:38:30.195Z,81.34
2023-05-23T10:39:30.179Z,80.32
2023-05-23T10:40:30.203Z,79.15
2023-05-23T10:41:30.180Z,80.16
2023-05-23T10:42:30.165Z,80.06
2023-05-23T10:43:30.147Z,80.20
2023-05-23T10:44:30.134Z,80.10
2023-05-23T10:45:30.184Z,80.60
2023-05-23T10:46:30.287Z,80.34
2023-05-23T10:47:30.227Z,81.21
2023-05-23T10:48:30.116Z,81.01
2023-05-23T10:49:30.087Z,80.74
2023-05-23T10:50:30.072Z,81.41
2023-05-23T10:51:30.112Z,81.21
2023-05-23T10:52:30.065Z,81.11
2023-05-23T10:53:30.052Z,80.27
2023-05-23T10:54:30.049Z,80.98
2023-05-23T10:55:30.050Z,80.07
2023-05-23T10:56:30.059Z,79.77
2023-05-23T10:57:30.096Z,79.97
2023-05-23T10:58:30.015Z,79.06
2023-05-23T10:59:30.001Z,79.97
2023-05-23T11:01:01.946Z,79.46
2023-05-23T11:01:30.029Z,79.33
2023-05-23T11:02:30.043Z,79.53
2023-05-23T11:03:30.008Z,78.68
2023-05-23T11:04:29.982Z,78.24
2023-05-23T11:05:29.951Z,77.13
2023-05-23T11:06:29.959Z,77.53
2023-05-23T11:07:29.918Z,76.05
2023-05-23T11:08:39.340Z,76.72
2023-05-23T11:09:31.930Z,77.03
2023-05-23T11:10:29.906Z,77.47
2023-05-23T11:11:29.918Z,76.86
2023-05-23T11:12:29.868Z,77.47
2023-05-23T11:13:29.872Z,77.81
2023-05-23T11:14:29.915Z,77.77
2023-05-23T11:15:29.860Z,77.50
2023-05-23T11:16:29.885Z,78.08
2023-05-23T11:17:29.898Z,77.53
2023-05-23T11:18:29.826Z,76.22
2023-05-23T11:19:29.876Z,76.72
2023-05-23T11:20:29.831Z,76.93
2023-05-23T11:21:29.796Z,76.79
2023-05-23T11:22:29.787Z,75.68
2023-05-23T11:23:29.768Z,75.57
2023-05-23T11:24:29.765Z,75.37
2023-05-23T11:25:29.850Z,76.18
2023-05-23T11:26:29.737Z,75.88
2023-05-23T11:27:29.733Z,75.71
2023-05-23T11:28:29.756Z,76.86
2023-05-23T11:29:29.740Z,77.87
2023-05-23T11:30:29.710Z,78.28
2023-05-23T11:31:29.813Z,77.87
2023-05-23T11:32:29.729Z,77.87
2023-05-23T11:33:29.696Z,77.67
2023-05-23T11:34:29.667Z,78.48
2023-05-23T11:35:29.652Z,78.04
2023-05-23T11:36:29.658Z,78.24
2023-05-23T11:37:29.640Z,77.64
2023-05-23T11:38:29.636Z,78.64
2023-05-23T11:39:29.623Z,78.14
2023-05-23T11:40:29.618Z,78.04
2023-05-23T11:41:29.626Z,77.39
2023-05-23T11:42:29.609Z,77.70
2023-05-23T11:43:29.615Z,77.19
2023-05-23T11:44:29.589Z,77.70
2023-05-23T11:45:29.573Z,77.70
2023-05-23T11:46:29.633Z,77.19
2023-05-23T11:47:29.639Z,77.19
2023-05-23T11:48:29.557Z,77.50
2023-05-23T11:49:29.525Z,77.50
2023-05-23T11:50:29.580Z,77.53
2023-05-23T11:51:29.540Z,78.28
2023-05-23T11:52:29.573Z,77.53
2023-05-23T11:53:29.539Z,77.94
2023-05-23T11:54:29.464Z,78.34
2023-05-23T11:55:29.471Z,77.84
2023-05-23T11:56:30.456Z,78.38
2023-05-23T11:57:29.432Z,78.88
2023-05-23T11:58:29.536Z,79.79
2023-05-23T11:59:29.426Z,79.22
2023-05-23T12:00:29.462Z,79.43
2023-05-23T12:01:29.415Z,79.29
2023-05-23T12:02:29.484Z,79.29
2023-05-23T12:03:29.579Z,79.59
2023-05-23T12:04:29.533Z,78.75
2023-05-23T12:05:29.408Z,78.58
2023-05-23T12:06:29.378Z,78.28
2023-05-23T12:07:29.385Z,78.78
2023-05-23T12:08:29.351Z,78.99
2023-05-23T12:09:29.332Z,78.38
2023-05-23T12:10:29.364Z,78.58
2023-05-23T12:11:29.318Z,78.48
2023-05-23T12:12:30.117Z,78.68
2023-05-23T12:13:29.327Z,78.78
2023-05-23T12:14:29.274Z,78.48
2023-05-23T12:15:29.332Z,79.43
2023-05-23T12:16:29.271Z,78.48
2023-05-23T12:17:29.260Z,78.78
2023-05-23T12:18:29.230Z,78.88
2023-05-23T12:19:29.272Z,78.68
2023-05-23T12:20:29.242Z,79.33
2023-05-23T12:21:29.204Z,79.22
2023-05-23T12:22:29.263Z,79.73
2023-05-23T12:23:29.185Z,79.77
2023-05-23T12:24:29.196Z,79.43
2023-05-23T12:25:29.170Z,79.46
2023-05-23T12:26:29.190Z,78.75
2023-05-23T12:27:29.160Z,79.73
2023-05-23T12:28:29.162Z,79.73
2023-05-23T12:29:29.127Z,79.87
2023-05-23T12:30:29.139Z,79.77
2023-05-23T12:31:29.148Z,79.67
2023-05-23T12:32:29.123Z,80.38
2023-05-23T12:33:29.116Z,80.07
2023-05-23T12:34:29.085Z,79.87
2023-05-23T12:35:29.078Z,80.47
2023-05-23T12:36:31.152Z,80.47
2023-05-23T12:37:30.114Z,80.21
2023-05-23T12:38:29.068Z,80.68
2023-05-23T12:39:29.039Z,80.88
2023-05-23T12:40:29.045Z,80.01
2023-05-23T12:41:29.996Z,80.86
2023-05-23T12:42:30.640Z,81.77
2023-05-23T12:43:30.020Z,82.01
2023-05-23T12:44:29.027Z,82.21
2023-05-23T12:45:29.007Z,82.62
2023-05-23T12:46:28.977Z,81.71
2023-05-23T12:47:29.110Z,82.28
2023-05-23T12:48:28.969Z,82.62
2023-05-23T12:49:28.948Z,81.87
2023-05-23T12:50:28.940Z,82.07
2023-05-23T12:51:28.957Z,81.67
2023-05-23T12:52:28.920Z,81.97